createdAt,value
2018-02-08T00:00:54.946Z,87.76
2018-02-08T00:01:54.896Z,87.29
2018-02-08T00:02:54.883Z,87.48
2018-02-08T00:03:54.869Z,87.19
2018-02-08T00:06:17.851Z,87.10
2018-02-08T00:07:17.821Z,86.91
2018-02-08T00:08:17.777Z,87.00
2018-02-08T00:10:40.833Z,87.66
2018-02-08T00:13:02.798Z,88.23
2018-02-08T00:14:04.175Z,88.32
2018-02-08T00:16:07.612Z,87.76
2018-02-08T00:16:57.023Z,87.66
2018-02-08T00:17:56.978Z,87.76
2018-02-08T00:18:56.948Z,87.66
2018-02-08T00:21:19.996Z,88.70
2018-02-08T00:22:19.916Z,88.98
2018-02-08T00:24:42.912Z,87.95
2018-02-08T00:25:42.859Z,87.95
2018-02-08T00:26:42.827Z,88.32
2018-02-08T00:27:42.824Z,88.04
2018-02-08T00:28:42.774Z,87.95
2018-02-08T00:29:42.723Z,87.85
2018-02-08T00:32:15.850Z,88.23
2018-02-08T00:34:38.817Z,88.23
2018-02-08T00:35:28.760Z,88.13
2018-02-08T00:36:28.643Z,88.32
2018-02-08T00:38:51.642Z,88.70
2018-02-08T00:41:14.736Z,88.94
2018-02-08T00:42:14.588Z,88.89
2018-02-08T00:43:14.535Z,89.03
2018-02-08T00:44:14.566Z,88.98
2018-02-08T00:45:14.464Z,89.27
2018-02-08T00:46:14.436Z,89.45
2018-02-08T00:47:14.420Z,89.03
2018-02-08T00:49:37.404Z,88.56
2018-02-08T00:50:37.361Z,88.75
2018-02-08T00:51:37.355Z,88.75
2018-02-08T00:52:37.284Z,88.47
2018-02-08T00:53:37.271Z,88.75
2018-02-08T00:54:37.241Z,88.75
2018-02-08T00:55:37.218Z,89.41
2018-02-08T00:56:37.175Z,89.88
2018-02-08T00:57:37.135Z,90.55
2018-02-08T00:58:37.104Z,90.26
2018-02-08T01:01:10.811Z,89.60
2018-02-08T01:03:33.182Z,89.13
2018-02-08T01:04:23.035Z,89.51
2018-02-08T01:05:23.389Z,89.41
2018-02-08T01:07:45.143Z,89.13
2018-02-08T01:08:45.211Z,89.13
2018-02-08T01:10:39.529Z,89.88
2018-02-08T01:11:39.285Z,89.98
2018-02-08T01:14:09.960Z,89.51
2018-02-08T01:15:02.392Z,89.69
2018-02-08T01:16:57.189Z,89.69
2018-02-08T01:17:56.609Z,89.79
2018-02-08T01:18:56.557Z,89.51
2018-02-08T01:19:56.549Z,89.79
2018-02-08T01:20:56.497Z,90.07
2018-02-08T01:21:56.509Z,89.98
2018-02-08T01:22:56.439Z,89.79
2018-02-08T01:23:56.421Z,89.79
2018-02-08T01:26:29.497Z,89.88
2018-02-08T01:27:19.387Z,89.79
2018-02-08T01:29:41.367Z,90.55
2018-02-08T01:32:04.449Z,90.45
2018-02-08T01:34:37.843Z,91.11
2018-02-08T01:35:27.365Z,90.73
2018-02-08T01:36:27.243Z,90.83
2018-02-08T01:37:27.212Z,90.64
2018-02-08T01:40:00.275Z,90.17
2018-02-08T01:42:13.184Z,89.88
2018-02-08T01:43:13.260Z,89.79
2018-02-08T01:45:36.581Z,90.36
2018-02-08T01:46:36.533Z,90.26
2018-02-08T01:47:36.050Z,90.17
2018-02-08T01:50:08.202Z,90.26
2018-02-08T01:50:59.009Z,90.07
2018-02-08T01:51:58.986Z,89.88
2018-02-08T01:53:06.637Z,89.51
2018-02-08T01:54:53.734Z,89.98
2018-02-08T01:55:53.248Z,90.55
2018-02-08T01:56:53.238Z,90.36
2018-02-08T01:57:53.200Z,90.36
2018-02-08T01:58:53.171Z,90.26
2018-02-08T02:01:16.149Z,90.26
2018-02-08T02:02:16.085Z,90.17
2018-02-08T02:03:16.059Z,90.45
2018-02-08T02:04:16.031Z,90.55
2018-02-08T02:06:39.120Z,91.02
2018-02-08T02:07:41.583Z,90.92
2018-02-08T02:10:02.046Z,91.49
2018-02-08T02:11:01.916Z,91.86
2018-02-08T02:12:01.902Z,91.86
2018-02-08T02:13:01.863Z,91.86
2018-02-08T02:14:10.496Z,91.39
2018-02-08T02:16:06.282Z,91.67
2018-02-08T02:16:56.275Z,91.49
2018-02-08T02:17:56.588Z,91.86
2018-02-08T02:20:19.125Z,91.77
2018-02-08T02:22:50.754Z,91.30
2018-02-08T02:25:16.139Z,91.39
2018-02-08T02:26:06.019Z,91.58
2018-02-08T02:28:29.660Z,91.30
2018-02-08T02:29:29.016Z,91.30
2018-02-08T02:32:02.091Z,91.39
2018-02-08T02:32:52.129Z,91.96
2018-02-08T02:35:15.524Z,92.43
2018-02-08T02:37:37.901Z,92.61
2018-02-08T02:40:10.942Z,92.61
2018-02-08T02:42:33.954Z,93.09
2018-02-08T02:43:23.835Z,92.61
2018-02-08T02:44:23.904Z,92.43
2018-02-08T02:46:47.399Z,92.05
2018-02-08T02:47:46.754Z,92.14
2018-02-08T02:48:46.766Z,91.96
2018-02-08T02:49:46.682Z,92.24
2018-02-08T02:52:09.702Z,91.58
2018-02-08T02:53:09.678Z,91.86
2018-02-08T02:54:09.633Z,92.05
2018-02-08T02:56:44.239Z,91.30
2018-02-08T02:57:32.572Z,91.49
2018-02-08T03:00:05.632Z,91.49
2018-02-08T03:00:55.604Z,91.49
2018-02-08T03:01:55.586Z,91.30
2018-02-08T03:02:55.914Z,91.20
2018-02-08T03:05:18.450Z,92.05
2018-02-08T03:07:41.400Z,92.52
2018-02-08T03:08:41.342Z,92.61
2018-02-08T03:11:04.617Z,92.71
2018-02-08T03:13:27.310Z,93.47
2018-02-08T03:15:50.315Z,92.99
2018-02-08T03:18:13.284Z,92.80
2018-02-08T03:20:43.932Z,92.43
2018-02-08T03:22:59.241Z,92.43
2018-02-08T03:23:59.182Z,91.96
2018-02-08T03:24:59.151Z,92.14
2018-02-08T03:25:59.164Z,92.24
2018-02-08T03:26:59.093Z,91.96
2018-02-08T03:27:59.534Z,91.96
2018-02-08T03:30:22.136Z,91.77
2018-02-08T03:32:45.010Z,91.77
2018-02-08T03:35:18.620Z,91.86
2018-02-08T03:36:08.263Z,91.86
2018-02-08T03:37:07.912Z,92.05
2018-02-08T03:38:07.884Z,91.77
2018-02-08T03:40:30.930Z,92.52
2018-02-08T03:41:30.842Z,93.09
2018-02-08T03:42:30.833Z,93.09
2018-02-08T03:44:53.783Z,92.52
2018-02-08T03:47:17.254Z,92.14
2018-02-08T03:48:17.263Z,92.24
2018-02-08T03:49:16.730Z,92.80
2018-02-08T03:51:49.878Z,92.61
2018-02-08T03:54:02.705Z,92.61
2018-02-08T03:55:02.654Z,92.66
2018-02-08T03:56:02.614Z,93.18
2018-02-08T03:57:02.577Z,93.09
2018-02-08T03:58:02.571Z,93.37
2018-02-08T03:59:02.527Z,93.09
2018-02-08T04:00:02.495Z,92.99
2018-02-08T04:02:25.513Z,93.18
2018-02-08T04:04:56.173Z,92.52
2018-02-08T04:05:48.567Z,92.14
2018-02-08T04:07:50.449Z,91.77
2018-02-08T04:08:42.750Z,91.77
2018-02-08T04:10:48.196Z,91.67
2018-02-08T04:11:37.366Z,91.35
2018-02-08T04:12:37.008Z,91.77
2018-02-08T04:13:36.998Z,91.77
2018-02-08T04:14:36.962Z,92.05
2018-02-08T04:15:36.913Z,91.86
2018-02-08T04:16:36.915Z,91.72
2018-02-08T04:17:36.852Z,91.91
2018-02-08T04:18:36.849Z,92.00
2018-02-08T04:19:36.818Z,92.24
2018-02-08T04:20:36.757Z,92.29
2018-02-08T04:23:00.252Z,92.66
2018-02-08T04:25:33.325Z,93.13
2018-02-08T04:26:22.718Z,92.85
2018-02-08T04:28:53.369Z,92.95
2018-02-08T04:31:17.748Z,92.80
2018-02-08T04:32:07.652Z,92.66
2018-02-08T04:33:07.628Z,92.85
2018-02-08T04:34:07.581Z,93.04
2018-02-08T04:36:40.653Z,92.38
2018-02-08T04:37:30.549Z,92.38
2018-02-08T04:40:04.125Z,92.29
2018-02-08T04:40:53.533Z,92.10
2018-02-08T04:43:16.483Z,91.91
2018-02-08T04:44:16.587Z,92.38
2018-02-08T04:46:39.504Z,92.95
2018-02-08T04:47:39.423Z,92.95
2018-02-08T04:48:39.415Z,92.76
2018-02-08T04:51:12.484Z,93.23
2018-02-08T04:52:02.364Z,93.61
2018-02-08T04:54:32.986Z,93.32
2018-02-08T04:55:25.268Z,93.51
2018-02-08T04:57:19.634Z,93.61
2018-02-08T04:59:42.611Z,93.23
2018-02-08T05:00:42.886Z,92.95
2018-02-08T05:03:16.137Z,92.85
2018-02-08T05:04:05.500Z,92.29
2018-02-08T05:06:28.593Z,92.29
2018-02-08T05:08:51.988Z,92.38
2018-02-08T05:09:51.441Z,92.29
2018-02-08T05:10:51.415Z,92.47
2018-02-08T05:13:14.410Z,92.85
2018-02-08T05:14:14.358Z,92.85
2018-02-08T05:16:37.369Z,92.66
2018-02-08T05:19:00.337Z,92.47
2018-02-08T05:20:00.304Z,92.57
2018-02-08T05:22:23.838Z,92.76
2018-02-08T05:23:23.243Z,92.66
2018-02-08T05:25:46.235Z,92.57
2018-02-08T05:28:19.332Z,92.85
2018-02-08T05:29:09.283Z,92.76
2018-02-08T05:31:42.264Z,92.95
2018-02-08T05:32:32.109Z,92.76
2018-02-08T05:33:32.104Z,93.32
2018-02-08T05:35:55.233Z,92.57
2018-02-08T05:38:18.047Z,92.95
2018-02-08T05:40:51.174Z,93.13
2018-02-08T05:41:41.321Z,93.13
2018-02-08T05:44:14.056Z,92.95
2018-02-08T05:45:03.921Z,92.95
2018-02-08T05:46:03.906Z,92.76
2018-02-08T05:47:03.872Z,92.95
2018-02-08T05:49:36.963Z,92.95
2018-02-08T05:52:00.528Z,92.95
2018-02-08T05:52:49.829Z,92.95
2018-02-08T05:55:12.900Z,93.13
2018-02-08T05:56:13.188Z,92.66
2018-02-08T05:58:35.105Z,92.66
2018-02-08T05:59:34.910Z,92.95
2018-02-08T06:01:39.712Z,93.04
2018-02-08T06:02:29.164Z,93.04
2018-02-08T06:04:51.204Z,93.80
2018-02-08T06:07:14.133Z,93.04
2018-02-08T06:09:37.164Z,93.13
2018-02-08T06:10:37.082Z,93.13
2018-02-08T06:13:00.064Z,93.51
2018-02-08T06:14:00.024Z,93.51
2018-02-08T06:14:59.990Z,93.42
2018-02-08T06:17:32.377Z,93.89
2018-02-08T06:18:21.978Z,93.51
2018-02-08T06:20:55.080Z,93.04
2018-02-08T06:21:45.139Z,93.32
2018-02-08T06:24:08.128Z,93.23
2018-02-08T06:25:07.873Z,93.23
2018-02-08T06:26:07.848Z,93.32
2018-02-08T06:27:07.812Z,93.13
2018-02-08T06:28:07.799Z,93.04
2018-02-08T06:29:07.742Z,93.70
2018-02-08T06:30:07.733Z,93.23
2018-02-08T06:32:40.784Z,93.51
2018-02-08T06:33:30.734Z,93.70
2018-02-08T06:34:30.618Z,93.89
2018-02-08T06:35:30.602Z,93.70
2018-02-08T06:36:30.586Z,93.32
2018-02-08T06:37:30.536Z,93.89
2018-02-08T06:38:30.506Z,93.70
2018-02-08T06:39:30.470Z,93.51
2018-02-08T06:41:53.506Z,93.80
2018-02-08T06:43:01.138Z,93.98
2018-02-08T06:44:56.879Z,93.61
2018-02-08T06:45:47.786Z,93.98
2018-02-08T06:46:47.878Z,93.89
2018-02-08T06:49:10.695Z,93.51
2018-02-08T06:50:10.646Z,93.61
2018-02-08T06:51:10.629Z,93.61
2018-02-08T06:52:18.272Z,93.51
2018-02-08T06:54:05.251Z,93.23
2018-02-08T06:56:38.464Z,94.46
2018-02-08T06:59:01.380Z,94.55
2018-02-08T06:59:50.847Z,94.55
2018-02-08T07:00:51.248Z,94.55
2018-02-08T07:03:14.098Z,94.17
2018-02-08T07:04:13.752Z,94.08
2018-02-08T07:05:13.756Z,94.55
2018-02-08T07:06:13.718Z,93.98
2018-02-08T07:08:36.686Z,93.70
2018-02-08T07:10:59.683Z,93.51
2018-02-08T07:12:00.019Z,93.80
2018-02-08T07:12:59.693Z,94.55
2018-02-08T07:13:59.564Z,94.65
2018-02-08T07:16:22.947Z,94.46
2018-02-08T07:18:54.172Z,94.74
2018-02-08T07:19:53.137Z,94.74
2018-02-08T07:21:39.796Z,94.55
2018-02-08T07:22:39.776Z,94.65
2018-02-08T07:23:39.735Z,94.93
2018-02-08T07:24:39.724Z,95.12
2018-02-08T07:25:39.677Z,94.83
2018-02-08T07:26:39.721Z,94.74
2018-02-08T07:27:39.611Z,95.12
2018-02-08T07:28:39.570Z,95.07
2018-02-08T07:31:02.593Z,95.36
2018-02-08T07:32:02.549Z,95.36
2018-02-08T07:33:02.509Z,95.26
2018-02-08T07:34:02.455Z,95.07
2018-02-08T07:35:02.423Z,94.98
2018-02-08T07:37:25.612Z,95.64
2018-02-08T07:39:48.400Z,95.73
2018-02-08T07:40:48.326Z,95.64
2018-02-08T07:41:48.292Z,95.36
2018-02-08T07:44:11.286Z,95.54
2018-02-08T07:46:34.783Z,95.17
2018-02-08T07:49:09.507Z,95.36
2018-02-08T07:51:20.465Z,94.88
2018-02-08T07:53:53.302Z,94.98
2018-02-08T07:56:05.337Z,94.41
2018-02-08T07:58:39.881Z,94.22
2018-02-08T08:00:52.956Z,94.65
2018-02-08T08:01:53.889Z,95.03
2018-02-08T08:04:25.530Z,94.93
2018-02-08T08:05:24.728Z,95.03
2018-02-08T08:06:14.844Z,95.21
2018-02-08T08:07:23.982Z,94.84
2018-02-08T08:09:09.208Z,94.18
2018-02-08T08:10:09.132Z,93.70
2018-02-08T08:11:09.118Z,93.61
2018-02-08T08:13:31.067Z,93.13
2018-02-08T08:16:04.142Z,93.04
2018-02-08T08:18:27.100Z,92.10
2018-02-08T08:19:17.007Z,91.63
2018-02-08T08:20:17.120Z,91.63
2018-02-08T08:21:26.763Z,91.72
2018-02-08T08:23:21.865Z,91.16
2018-02-08T08:24:12.097Z,90.87
2018-02-08T08:25:12.067Z,90.78
2018-02-08T08:27:37.110Z,90.54
2018-02-08T08:28:36.744Z,90.16
2018-02-08T08:29:36.698Z,90.16
2018-02-08T08:32:01.765Z,90.64
2018-02-08T08:33:11.073Z,90.45
2018-02-08T08:35:05.633Z,89.78
2018-02-08T08:36:02.701Z,89.97
2018-02-08T08:37:49.504Z,89.88
2018-02-08T08:38:49.455Z,89.88
2018-02-08T08:39:49.504Z,90.16
2018-02-08T08:40:49.659Z,89.22
2018-02-08T08:43:12.416Z,89.12
2018-02-08T08:45:36.040Z,88.93
2018-02-08T08:46:35.469Z,88.75
2018-02-08T08:47:35.316Z,89.31
2018-02-08T08:48:35.299Z,89.22
2018-02-08T08:50:59.744Z,88.37
2018-02-08T08:51:59.228Z,89.69
2018-02-08T08:52:59.215Z,89.31
2018-02-08T08:53:59.222Z,89.12
2018-02-08T08:56:32.170Z,89.40
2018-02-08T08:59:25.612Z,89.31
2018-02-08T09:00:25.500Z,89.31
2018-02-08T09:02:19.920Z,88.75
2018-02-08T09:03:09.812Z,88.65
2018-02-08T09:04:10.476Z,88.65
2018-02-08T09:05:09.759Z,88.75
2018-02-08T09:07:33.808Z,88.75
2018-02-08T09:10:06.832Z,88.84
2018-02-08T09:11:04.411Z,88.65
2018-02-08T09:13:00.781Z,88.37
2018-02-08T09:15:27.744Z,88.93
2018-02-08T09:17:38.411Z,88.09
2018-02-08T09:18:46.829Z,88.28
2018-02-08T09:20:32.502Z,88.93
2018-02-08T09:21:42.179Z,89.12
2018-02-08T09:22:32.255Z,89.12
2018-02-08T09:23:32.104Z,88.28
2018-02-08T09:24:32.377Z,88.18
2018-02-08T09:26:57.028Z,88.37
2018-02-08T09:27:56.038Z,87.99
2018-02-08T09:28:56.007Z,87.99
2018-02-08T09:29:56.040Z,87.90
2018-02-08T09:30:55.946Z,87.90
2018-02-08T09:31:56.536Z,88.28
2018-02-08T09:35:19.031Z,88.37
2018-02-08T09:36:18.871Z,88.09
2018-02-08T09:37:18.840Z,87.99
2018-02-08T09:38:18.801Z,88.18
2018-02-08T09:39:18.798Z,88.28
2018-02-08T09:40:19.118Z,88.37
2018-02-08T09:42:52.131Z,88.28
2018-02-08T09:43:42.114Z,88.09
2018-02-08T09:46:04.755Z,88.42
2018-02-08T09:47:04.688Z,87.37
2018-02-08T09:48:04.646Z,87.18
2018-02-08T09:49:04.652Z,87.28
2018-02-08T09:50:04.598Z,86.71
2018-02-08T09:51:04.581Z,87.85
2018-02-08T09:52:04.537Z,87.28
2018-02-08T09:53:04.521Z,87.18
2018-02-08T09:54:05.189Z,87.28
2018-02-08T09:56:37.570Z,86.15
2018-02-08T09:57:27.541Z,85.96
2018-02-08T09:58:27.442Z,85.11
2018-02-08T09:59:27.488Z,85.39
2018-02-08T10:00:27.981Z,85.39
2018-02-08T10:01:27.393Z,84.45
2018-02-08T10:02:27.349Z,84.54
2018-02-08T10:03:27.326Z,84.54
2018-02-08T10:04:27.270Z,84.45
2018-02-08T10:05:27.273Z,85.30
2018-02-08T10:06:27.197Z,85.11
2018-02-08T10:07:27.170Z,84.82
2018-02-08T10:08:27.180Z,85.68
2018-02-08T10:09:27.115Z,85.68
2018-02-08T10:10:27.082Z,85.68
2018-02-08T10:11:27.062Z,85.11
2018-02-08T10:12:27.065Z,85.30
2018-02-08T10:13:27.981Z,84.35
2018-02-08T10:14:26.998Z,83.97
2018-02-08T10:15:26.986Z,84.07
2018-02-08T10:16:26.956Z,84.73
2018-02-08T10:17:26.951Z,84.73
2018-02-08T10:18:27.494Z,83.78
2018-02-08T10:19:27.487Z,83.54
2018-02-08T10:20:26.822Z,83.45
2018-02-08T10:21:27.484Z,82.69
2018-02-08T10:22:26.760Z,82.41
2018-02-08T10:23:26.741Z,82.60
2018-02-08T10:24:27.484Z,82.79
2018-02-08T10:25:26.697Z,82.69
2018-02-08T10:26:26.673Z,82.98
2018-02-08T10:27:27.491Z,82.50
2018-02-08T10:28:28.395Z,82.50
2018-02-08T10:29:27.615Z,82.50
2018-02-08T10:30:26.562Z,81.93
2018-02-08T10:31:26.550Z,81.84
2018-02-08T10:32:26.519Z,81.46
2018-02-08T10:33:26.473Z,80.80
2018-02-08T10:34:27.486Z,81.27
2018-02-08T10:35:26.417Z,80.99
2018-02-08T10:36:26.418Z,80.90
2018-02-08T10:39:00.181Z,79.38
2018-02-08T10:39:52.086Z,78.81
2018-02-08T10:40:51.260Z,78.53
2018-02-08T10:41:51.236Z,78.63
2018-02-08T10:44:25.026Z,79.67
2018-02-08T10:45:14.987Z,79.57
2018-02-08T10:46:14.899Z,79.95
2018-02-08T10:47:14.868Z,79.86
2018-02-08T10:48:14.945Z,79.86
2018-02-08T10:49:14.814Z,80.05
2018-02-08T10:50:14.768Z,79.86
2018-02-08T10:51:14.784Z,80.05
2018-02-08T10:53:47.830Z,79.48
2018-02-08T10:54:37.946Z,79.29
2018-02-08T10:55:37.693Z,79.38
2018-02-08T10:56:37.662Z,79.67
2018-02-08T10:57:38.554Z,78.81
2018-02-08T10:58:37.626Z,77.97
2018-02-08T10:59:37.640Z,77.69
2018-02-08T11:00:37.585Z,77.40
2018-02-08T11:01:37.571Z,77.69
2018-02-08T11:04:00.724Z,77.87
2018-02-08T11:05:00.659Z,77.50
2018-02-08T11:06:00.568Z,77.12
2018-02-08T11:07:02.459Z,76.83
2018-02-08T11:08:00.464Z,76.83
2018-02-08T11:09:00.827Z,76.74
2018-02-08T11:10:00.421Z,76.83
2018-02-08T11:11:00.374Z,77.82
2018-02-08T11:12:00.347Z,77.91
2018-02-08T11:14:23.365Z,78.67
2018-02-08T11:15:23.306Z,78.39
2018-02-08T11:17:46.529Z,77.44
2018-02-08T11:18:46.297Z,76.87
2018-02-08T11:19:46.262Z,77.63
2018-02-08T11:20:46.277Z,77.34
2018-02-08T11:21:46.207Z,77.63
2018-02-08T11:22:46.149Z,77.34
2018-02-08T11:23:46.134Z,76.21
2018-02-08T11:24:46.129Z,75.45
2018-02-08T11:25:46.095Z,74.69
2018-02-08T11:26:46.094Z,74.04
2018-02-08T11:29:19.192Z,73.85
2018-02-08T11:31:32.038Z,74.32
2018-02-08T11:32:32.227Z,74.22
2018-02-08T11:33:32.064Z,74.41
2018-02-08T11:34:32.021Z,74.98
2018-02-08T11:37:05.091Z,75.36
2018-02-08T11:37:54.936Z,74.79
2018-02-08T11:38:54.988Z,74.79
2018-02-08T11:39:54.888Z,74.79
2018-02-08T11:40:54.876Z,74.88
2018-02-08T11:41:54.843Z,74.69
2018-02-08T11:42:54.783Z,74.51
2018-02-08T11:43:54.764Z,74.79
2018-02-08T11:44:54.735Z,74.88
2018-02-08T11:45:54.723Z,74.98
2018-02-08T11:46:54.695Z,75.07
2018-02-08T11:47:54.685Z,75.26
2018-02-08T11:48:54.670Z,75.83
2018-02-08T11:49:54.676Z,76.02
2018-02-08T11:52:27.803Z,75.36
2018-02-08T11:54:53.087Z,73.94
2018-02-08T11:55:43.182Z,73.28
2018-02-08T11:56:59.601Z,72.62
2018-02-08T11:58:39.811Z,72.90
2018-02-08T11:59:39.172Z,73.28
2018-02-08T12:00:39.415Z,72.52
2018-02-08T12:03:03.725Z,71.39
2018-02-08T12:05:37.810Z,71.61
2018-02-08T12:06:35.828Z,71.61
2018-02-08T12:08:21.639Z,69.87
2018-02-08T12:09:21.607Z,70.20
2018-02-08T12:10:21.703Z,70.39
2018-02-08T12:11:21.625Z,69.82
2018-02-08T12:12:21.543Z,69.82
2018-02-08T12:13:21.545Z,69.82
2018-02-08T12:14:21.464Z,70.39
2018-02-08T12:15:21.476Z,70.29
2018-02-08T12:16:21.414Z,69.82
2018-02-08T12:17:21.393Z,68.96
2018-02-08T12:18:21.391Z,68.59
2018-02-08T12:19:21.377Z,68.40
2018-02-08T12:20:21.323Z,67.64
2018-02-08T12:21:21.306Z,68.87
2018-02-08T12:22:21.331Z,69.63
2018-02-08T12:23:21.251Z,69.25
2018-02-08T12:24:21.281Z,70.01
2018-02-08T12:25:21.190Z,70.01
2018-02-08T12:26:21.203Z,70.20
2018-02-08T12:27:21.212Z,68.87
2018-02-08T12:29:54.245Z,67.26
2018-02-08T12:30:44.207Z,66.88
2018-02-08T12:31:44.094Z,66.98
2018-02-08T12:32:44.065Z,67.26
2018-02-08T12:33:44.035Z,67.36
2018-02-08T12:34:44.022Z,67.45
2018-02-08T12:35:43.995Z,67.55
2018-02-08T12:36:43.983Z,67.45
2018-02-08T12:37:43.962Z,67.36
2018-02-08T12:38:43.968Z,67.26
2018-02-08T12:39:43.908Z,66.69
2018-02-08T12:40:43.865Z,66.13
2018-02-08T12:41:43.869Z,66.22
2018-02-08T12:42:43.819Z,66.13
2018-02-08T12:43:43.868Z,67.07
2018-02-08T12:44:43.798Z,66.98
2018-02-08T12:45:43.743Z,66.69
2018-02-08T12:46:43.745Z,66.31
2018-02-08T12:47:43.686Z,66.31
2018-02-08T12:48:43.699Z,66.31
2018-02-08T12:49:43.632Z,67.26
2018-02-08T12:50:43.644Z,67.17
2018-02-08T12:51:43.593Z,67.55
2018-02-08T12:52:43.596Z,68.02
2018-02-08T12:53:43.598Z,66.88
2018-02-08T12:54:43.513Z,67.17
2018-02-08T12:55:43.565Z,67.74
2018-02-08T12:56:43.464Z,67.64
2018-02-08T12:57:43.489Z,67.26
2018-02-08T12:58:43.437Z,66.79
2018-02-08T12:59:43.400Z,66.41
2018-02-08T13:00:43.368Z,66.53
2018-02-08T13:01:43.381Z,66.31
2018-02-08T13:02:43.329Z,66.53
2018-02-08T13:03:43.312Z,65.97
2018-02-08T13:04:43.280Z,66.35
2018-02-08T13:05:43.257Z,65.50
2018-02-08T13:06:43.224Z,64.36
2018-02-08T13:07:43.202Z,63.98
2018-02-08T13:08:43.210Z,64.74
2018-02-08T13:09:43.151Z,64.83
2018-02-08T13:10:43.161Z,65.02
2018-02-08T13:11:43.104Z,64.74
2018-02-08T13:12:43.127Z,65.59
2018-02-08T13:13:43.062Z,65.21
2018-02-08T13:14:43.068Z,65.78
2018-02-08T13:15:43.034Z,66.25
2018-02-08T13:16:42.980Z,65.97
2018-02-08T13:17:42.978Z,64.83
2018-02-08T13:18:42.972Z,64.42
2018-02-08T13:19:42.937Z,64.71
2018-02-08T13:20:42.888Z,64.71
2018-02-08T13:21:42.859Z,65.02
2018-02-08T13:22:42.860Z,65.28
2018-02-08T13:23:42.814Z,65.31
2018-02-08T13:24:42.787Z,65.56
2018-02-08T13:25:42.788Z,66.03
2018-02-08T13:26:42.748Z,66.69
2018-02-08T13:27:42.715Z,66.35
2018-02-08T13:28:42.710Z,66.35
2018-02-08T13:29:42.671Z,66.63
2018-02-08T13:30:42.643Z,66.25
2018-02-08T13:31:42.623Z,66.35
2018-02-08T13:32:42.617Z,66.53
2018-02-08T13:33:42.609Z,65.88
2018-02-08T13:34:42.565Z,65.88
2018-02-08T13:35:42.524Z,65.40
2018-02-08T13:36:42.520Z,65.59
2018-02-08T13:37:42.522Z,65.78
2018-02-08T13:38:42.468Z,65.69
2018-02-08T13:39:42.449Z,65.78
2018-02-08T13:40:42.442Z,65.69
2018-02-08T13:41:42.407Z,65.78
2018-02-08T13:42:42.362Z,64.93
2018-02-08T13:43:42.333Z,65.69
2018-02-08T13:44:42.348Z,65.69
2018-02-08T13:45:42.322Z,65.59
2018-02-08T13:46:42.264Z,64.93
2018-02-08T13:47:42.267Z,64.93
2018-02-08T13:48:42.242Z,64.26
2018-02-08T13:49:42.191Z,63.89
2018-02-08T13:50:42.169Z,63.98
2018-02-08T13:51:42.147Z,64.45
2018-02-08T13:52:42.142Z,64.55
2018-02-08T13:53:42.099Z,64.96
2018-02-08T13:54:42.106Z,64.45
2018-02-08T13:55:42.048Z,64.36
2018-02-08T13:56:42.065Z,64.93
2018-02-08T13:57:42.069Z,65.25
2018-02-08T13:58:41.980Z,64.49
2018-02-08T13:59:41.956Z,63.82
2018-02-08T14:00:41.962Z,63.92
2018-02-08T14:01:41.939Z,63.64
2018-02-08T14:02:41.919Z,63.35
2018-02-08T14:03:41.898Z,64.39
2018-02-08T14:04:41.860Z,63.64
2018-02-08T14:05:41.821Z,63.54
2018-02-08T14:06:41.800Z,63.20
2018-02-08T14:07:41.768Z,62.62
2018-02-08T14:08:41.740Z,62.43
2018-02-08T14:09:41.729Z,62.62
2018-02-08T14:10:41.695Z,61.49
2018-02-08T14:11:41.691Z,61.87
2018-02-08T14:12:41.660Z,62.62
2018-02-08T14:13:41.651Z,61.90
2018-02-08T14:14:41.632Z,60.95
2018-02-08T14:15:41.588Z,60.00
2018-02-08T14:16:41.564Z,59.69
2018-02-08T14:17:41.544Z,59.03
2018-02-08T14:18:41.541Z,59.78
2018-02-08T14:19:41.500Z,60.44
2018-02-08T14:20:41.502Z,60.06
2018-02-08T14:21:41.451Z,60.35
2018-02-08T14:22:41.477Z,60.16
2018-02-08T14:23:41.453Z,60.25
2018-02-08T14:24:41.444Z,60.73
2018-02-08T14:25:41.362Z,61.68
2018-02-08T14:26:41.342Z,61.77
2018-02-08T14:27:41.322Z,60.73
2018-02-08T14:28:41.307Z,60.25
2018-02-08T14:29:41.320Z,60.64
2018-02-08T14:30:41.283Z,60.06
2018-02-08T14:31:41.259Z,60.44
2018-02-08T14:32:41.219Z,60.35
2018-02-08T14:33:41.236Z,60.64
2018-02-08T14:34:41.190Z,60.83
2018-02-08T14:35:41.182Z,60.92
2018-02-08T14:36:41.137Z,61.68
2018-02-08T14:37:41.129Z,61.40
2018-02-08T14:38:41.097Z,61.40
2018-02-08T14:39:41.098Z,61.36
2018-02-08T14:40:41.063Z,61.18
2018-02-08T14:41:41.057Z,61.36
2018-02-08T14:42:41.014Z,61.74
2018-02-08T14:43:40.977Z,62.02
2018-02-08T14:44:40.978Z,62.31
2018-02-08T14:45:40.932Z,61.55
2018-02-08T14:46:40.920Z,61.74
2018-02-08T14:47:40.954Z,62.40
2018-02-08T14:48:40.917Z,62.78
2018-02-08T14:49:40.850Z,63.35
2018-02-08T14:50:40.843Z,63.45
2018-02-08T14:51:40.849Z,63.26
2018-02-08T14:52:40.786Z,63.26
2018-02-08T14:53:40.757Z,62.59
2018-02-08T14:54:40.747Z,62.59
2018-02-08T14:55:40.738Z,62.69
2018-02-08T14:56:40.695Z,63.16
2018-02-08T14:57:40.688Z,63.26
2018-02-08T14:58:40.649Z,63.54
2018-02-08T14:59:40.630Z,63.64
2018-02-08T15:00:40.608Z,63.32
2018-02-08T15:01:40.587Z,63.13
2018-02-08T15:02:40.564Z,63.79
2018-02-08T15:03:40.546Z,63.32
2018-02-08T15:04:40.518Z,63.54
2018-02-08T15:05:40.500Z,63.60
2018-02-08T15:06:40.477Z,64.64
2018-02-08T15:07:40.454Z,64.55
2018-02-08T15:08:40.446Z,63.79
2018-02-08T15:09:40.410Z,64.07
2018-02-08T15:12:03.461Z,64.45
2018-02-08T15:13:03.413Z,63.89
2018-02-08T15:15:37.474Z,64.17
2018-02-08T15:16:27.385Z,63.79
2018-02-08T15:17:27.362Z,63.60
2018-02-08T15:18:27.335Z,63.70
2018-02-08T15:19:27.361Z,64.07
2018-02-08T15:20:27.290Z,64.45
2018-02-08T15:21:27.294Z,64.36
2018-02-08T15:22:27.244Z,63.98
2018-02-08T15:23:27.218Z,65.12
2018-02-08T15:24:27.207Z,64.55
2018-02-08T15:25:27.151Z,64.64
2018-02-08T15:26:27.126Z,64.26
2018-02-08T15:27:27.118Z,64.36
2018-02-08T15:28:27.090Z,64.74
2018-02-08T15:29:27.058Z,65.40
2018-02-08T15:30:27.056Z,64.17
2018-02-08T15:31:27.016Z,64.83
2018-02-08T15:32:27.008Z,64.74
2018-02-08T15:33:26.965Z,64.07
2018-02-08T15:34:26.978Z,64.36
2018-02-08T15:35:26.923Z,64.26
2018-02-08T15:36:26.892Z,64.17
2018-02-08T15:37:26.906Z,63.98
2018-02-08T15:38:26.875Z,64.17
2018-02-08T15:39:26.840Z,64.74
2018-02-08T15:40:26.800Z,65.31
2018-02-08T15:41:26.808Z,65.69
2018-02-08T15:42:26.762Z,65.78
2018-02-08T15:43:26.758Z,65.69
2018-02-08T15:44:26.718Z,65.78
2018-02-08T15:45:26.749Z,65.21
2018-02-08T15:47:59.859Z,65.40
2018-02-08T15:52:49.736Z,67.26
2018-02-08T15:53:39.614Z,67.07
2018-02-08T15:54:39.509Z,67.45
2018-02-08T15:55:39.514Z,67.36
2018-02-08T15:56:39.478Z,67.17
2018-02-08T15:57:39.440Z,67.83
2018-02-08T15:58:39.990Z,67.17
2018-02-08T15:59:39.394Z,67.55
2018-02-08T16:00:39.387Z,67.64
2018-02-08T16:01:40.262Z,67.55
2018-02-08T16:02:39.516Z,68.59
2018-02-08T16:03:39.737Z,68.59
2018-02-08T16:04:39.597Z,67.93
2018-02-08T16:05:39.246Z,68.30
2018-02-08T16:06:39.636Z,68.59
2018-02-08T16:07:39.220Z,68.96
2018-02-08T16:08:39.161Z,69.34
2018-02-08T16:09:39.819Z,69.82
2018-02-08T16:12:02.186Z,69.44
2018-02-08T16:13:02.145Z,69.53
2018-02-08T16:14:02.108Z,69.91
2018-02-08T16:15:02.073Z,69.82
2018-02-08T16:16:02.044Z,70.39
2018-02-08T16:17:02.030Z,69.53
2018-02-08T16:18:02.002Z,70.01
2018-02-08T16:19:01.998Z,69.91
2018-02-08T16:20:01.967Z,70.20
2018-02-08T16:21:01.925Z,70.39
2018-02-08T16:22:01.905Z,70.67
2018-02-08T16:23:01.894Z,70.48
2018-02-08T16:24:01.864Z,70.76
2018-02-08T16:25:01.835Z,70.57
2018-02-08T16:26:01.803Z,71.14
2018-02-08T16:27:01.789Z,71.01
2018-02-08T16:28:01.754Z,70.92
2018-02-08T16:29:01.740Z,71.39
2018-02-08T16:30:01.701Z,71.30
2018-02-08T16:31:01.673Z,71.39
2018-02-08T16:32:01.659Z,71.39
2018-02-08T16:33:01.633Z,71.39
2018-02-08T16:34:01.634Z,71.86
2018-02-08T16:35:01.580Z,71.48
2018-02-08T16:36:01.569Z,71.67
2018-02-08T16:37:01.533Z,72.33
2018-02-08T16:38:01.504Z,72.33
2018-02-08T16:39:01.504Z,72.62
2018-02-08T16:40:01.458Z,72.43
2018-02-08T16:41:01.469Z,72.62
2018-02-08T16:42:01.412Z,72.24
2018-02-08T16:43:01.406Z,72.24
2018-02-08T16:44:01.375Z,72.99
2018-02-08T16:45:02.218Z,73.09
2018-02-08T16:46:01.330Z,73.28